East Flat Rock, North Carolina
Current Conditions -  °F | °C
As of 5:54 AM on Friday 31 Oct 2014 (Local Time) from KAVL Reporting Station
Overcast Overcast  
Wind Chill: 33°   Ceiling: 5000
Heat Index: 38°   Visibility: 10mi
Dew Point: 35°   Wind: 6mph
Humidity: 89%   Direction: 340°NNW
Pressure: 29.97"   Gusts: NA
Location:  35.28°N, 82.42°W
Report Text: KAVL 310954Z AUTO 34005KT 10SM OVC050 03/02 A2997 RMK AO2 SLP142 T00330017
Loading
Personal Weather Stations






























Interactive Weather Map
Tropical Storm Tracking
New forecast layout! Learn more

10-Day Weather Forecast

Advertisements
Track Severe Weather on mobile